Time,TemperatureF,DewpointF,PressureIn,WindDirection,WindDirectionDegrees,WindSpeedMPH,WindSpeedGustMPH,Humidity,HourlyPrecipIn,Conditions,Clouds,dailyrainin,SoftwareType,DateUTC
2013-01-11 00:00:00,11.6,9.4,30.04,North,0,0.0,0.0,91,0.00,CLR,,0.00,WeatherDisplay:10.37,2013-01-11 09:00:00,
2013-01-11 00:04:00,12.0,10.4,30.03,North,0,0.0,0.0,93,0.00,CLR,,0.00,WeatherDisplay:10.37,2013-01-11 09:04:00,
2013-01-11 00:09:00,12.6,10.9,30.03,North,0,0.0,0.0,93,0.00,CLR,,0.00,WeatherDisplay:10.37,2013-01-11 09:09:00,
2013-01-11 00:15:00,13.1,11.2,30.03,North,0,0.0,0.0,92,0.00,CLR,,0.00,WeatherDisplay:10.37,2013-01-11 09:15:00,
2013-01-11 00:24:00,12.9,10.7,30.03,North,0,0.0,0.0,91,0.00,CLR,,0.00,WeatherDisplay:10.37,2013-01-11 09:24:00,
2013-01-11 00:30:00,12.0,9.1,30.02,North,0,0.0,0.0,88,0.00,CLR,,0.00,WeatherDisplay:10.37,2013-01-11 09:30:00,
2013-01-11 00:39:00,10.2,7.1,30.02,North,0,0.0,0.0,87,0.00,CLR,,0.00,WeatherDisplay:10.37,2013-01-11 09:39:00,
2013-01-11 00:44:00,9.4,5.0,30.02,North,0,0.0,0.0,82,0.00,CLR,,0.00,WeatherDisplay:10.37,2013-01-11 09:44:00,
2013-01-11 00:49:00,8.9,5.8,30.02,North,0,0.0,0.0,87,0.00,CLR,,0.00,WeatherDisplay:10.37,2013-01-11 09:49:00,
2013-01-11 00:54:00,8.7,5.9,30.02,North,0,0.0,0.0,88,0.00,CLR,,0.00,WeatherDisplay:10.37,2013-01-11 09:54:00,
2013-01-11 01:00:00,8.3,5.5,30.02,North,0,0.0,0.0,88,0.00,CLR,,0.00,WeatherDisplay:10.37,2013-01-11 10:00:00,
2013-01-11 01:15:00,8.0,4.9,30.02,North,0,0.0,0.0,87,0.00,CLR,,0.00,WeatherDisplay:10.37,2013-01-11 10:15:00,
2013-01-11 01:24:00,7.0,3.7,30.00,North,0,0.0,0.0,86,0.00,CLR,,0.00,WeatherDisplay:10.37,2013-01-11 10:24:00,
2013-01-11 01:29:00,6.8,3.5,30.00,North,0,0.0,0.0,86,0.00,CLR,,0.00,WeatherDisplay:10.37,2013-01-11 10:29:00,
2013-01-11 01:39:00,6.8,3.5,30.00,North,0,0.0,0.0,86,0.00,CLR,,0.00,WeatherDisplay:10.37,2013-01-11 10:39:00,
2013-01-11 01:45:00,7.0,3.4,29.99,North,0,0.0,0.0,85,0.00,CLR,,0.00,WeatherDisplay:10.37,2013-01-11 10:45:00,
2013-01-11 01:54:00,7.5,4.7,29.99,North,0,0.0,0.0,88,0.00,CLR,,0.00,WeatherDisplay:10.37,2013-01-11 10:54:00,
2013-01-11 02:00:00,7.5,5.0,29.99,North,0,0.0,0.0,89,0.00,CLR,,0.00,WeatherDisplay:10.37,2013-01-11 11:00:00,
2013-01-11 02:09:00,7.7,4.1,29.98,North,0,0.0,0.0,85,0.00,CLR,,0.00,WeatherDisplay:10.37,2013-01-11 11:09:00,
2013-01-11 02:14:00,7.7,4.4,29.98,North,0,0.0,0.0,86,0.00,CLR,,0.00,WeatherDisplay:10.37,2013-01-11 11:14:00,
2013-01-11 02:19:00,7.9,4.8,29.98,North,0,0.0,0.0,87,0.00,CLR,,0.00,WeatherDisplay:10.37,2013-01-11 11:19:00,
2013-01-11 02:24:00,7.9,4.8,29.98,North,0,0.0,0.0,87,0.00,CLR,,0.00,WeatherDisplay:10.37,2013-01-11 11:24:00,
2013-01-11 02:30:00,8.1,5.2,29.98,North,0,0.0,0.0,88,0.00,CLR,,0.00,WeatherDisplay:10.37,2013-01-11 11:30:00,
2013-01-11 02:39:00,8.4,5.1,29.97,North,0,0.0,0.0,86,0.00,CLR,,0.00,WeatherDisplay:10.37,2013-01-11 11:39:00,
2013-01-11 02:45:00,8.8,5.2,29.97,North,0,0.0,0.0,85,0.00,CLR,,0.00,WeatherDisplay:10.37,2013-01-11 11:45:00,
2013-01-11 02:54:00,9.3,6.2,29.96,North,0,0.0,0.0,87,0.00,CLR,,0.00,WeatherDisplay:10.37,2013-01-11 11:54:00,
2013-01-11 03:00:00,9.1,6.1,29.96,North,0,0.0,0.0,87,0.00,CLR,,0.00,WeatherDisplay:10.37,2013-01-11 12:00:00,
2013-01-11 03:09:00,9.0,6.4,29.97,North,0,0.0,0.0,89,0.00,CLR,,0.00,WeatherDisplay:10.37,2013-01-11 12:09:00,
2013-01-11 03:15:00,9.0,6.4,29.96,North,0,0.0,0.0,89,0.00,CLR,,0.00,WeatherDisplay:10.37,2013-01-11 12:15:00,
2013-01-11 03:24:00,9.0,5.9,29.97,North,0,0.0,0.0,87,0.00,CLR,,0.00,WeatherDisplay:10.37,2013-01-11 12:24:00,
2013-01-11 03:30:00,9.0,6.1,29.96,North,0,0.0,0.0,88,0.00,CLR,,0.00,WeatherDisplay:10.37,2013-01-11 12:30:00,
2013-01-11 03:39:00,9.7,7.1,29.96,North,0,0.0,0.0,89,0.00,CLR,,0.00,WeatherDisplay:10.37,2013-01-11 12:39:00,
2013-01-11 03:45:00,10.0,6.9,29.95,North,0,0.0,0.0,87,0.00,CLR,,0.00,WeatherDisplay:10.37,2013-01-11 12:45:00,
2013-01-11 03:54:00,10.4,8.3,29.95,North,0,0.0,0.0,91,0.00,CLR,,0.00,WeatherDisplay:10.37,2013-01-11 12:54:00,
2013-01-11 03:59:00,10.6,8.2,29.95,North,0,0.0,0.0,90,0.00,CLR,,0.00,WeatherDisplay:10.37,2013-01-11 12:59:00,
2013-01-11 04:04:00,10.6,8.0,29.95,North,0,0.0,0.0,89,0.00,CLR,,0.00,WeatherDisplay:10.37,2013-01-11 13:04:00,
2013-01-11 04:09:00,10.6,8.2,29.94,North,0,0.0,0.0,90,0.00,CLR,,0.00,WeatherDisplay:10.37,2013-01-11 13:09:00,
2013-01-11 04:15:00,10.7,8.4,29.94,North,0,0.0,0.0,90,0.00,CLR,,0.00,WeatherDisplay:10.37,2013-01-11 13:15:00,
2013-01-11 04:24:00,10.8,9.4,29.94,North,0,0.0,0.0,94,0.00,CLR,,0.00,WeatherDisplay:10.37,2013-01-11 13:24:00,
2013-01-11 04:29:00,10.8,7.9,29.93,North,0,0.0,0.0,88,0.00,CLR,,0.00,WeatherDisplay:10.37,2013-01-11 13:29:00,
2013-01-11 04:39:00,10.9,10.0,29.93,North,0,0.0,0.0,96,0.00,CLR,,0.00,WeatherDisplay:10.37,2013-01-11 13:39:00,
2013-01-11 04:45:00,11.1,6.7,29.93,North,0,0.0,0.0,82,0.00,CLR,,0.00,WeatherDisplay:10.37,2013-01-11 13:45:00,
2013-01-11 04:54:00,11.1,8.8,29.92,North,0,0.0,0.0,90,0.00,CLR,,0.00,WeatherDisplay:10.37,2013-01-11 13:54:00,
2013-01-11 04:59:00,11.1,9.0,29.92,North,0,0.0,0.0,91,0.00,CLR,,0.00,WeatherDisplay:10.37,2013-01-11 13:59:00,
2013-01-11 05:09:00,11.1,8.5,29.92,North,0,0.0,0.0,89,0.00,CLR,,0.00,WeatherDisplay:10.37,2013-01-11 14:09:00,
2013-01-11 05:14:00,11.1,8.8,29.92,North,0,0.0,0.0,90,0.00,CLR,,0.00,WeatherDisplay:10.37,2013-01-11 14:14:00,
2013-01-11 05:19:00,11.2,8.3,29.92,North,0,0.0,0.0,88,0.00,CLR,,0.00,WeatherDisplay:10.37,2013-01-11 14:19:00,
2013-01-11 05:24:00,11.4,8.8,29.92,North,0,0.0,0.0,89,0.00,CLR,,0.00,WeatherDisplay:10.37,2013-01-11 14:24:00,
2013-01-11 05:30:00,11.5,8.9,29.92,North,0,0.0,0.0,89,0.00,CLR,,0.00,WeatherDisplay:10.37,2013-01-11 14:30:00,
2013-01-11 05:39:00,11.9,9.3,29.92,North,0,0.0,0.0,89,0.00,CLR,,0.00,WeatherDisplay:10.37,2013-01-11 14:39:00,
2013-01-11 05:45:00,12.0,9.4,29.92,North,0,0.0,0.0,89,0.00,CLR,,0.00,WeatherDisplay:10.37,2013-01-11 14:45:00,
2013-01-11 05:54:00,12.4,10.3,29.92,North,0,0.0,0.0,91,0.00,CLR,,0.00,WeatherDisplay:10.37,2013-01-11 14:54:00,
2013-01-11 05:59:00,12.6,10.2,29.92,North,0,0.0,0.0,90,0.00,CLR,,0.00,WeatherDisplay:10.37,2013-01-11 14:59:00,
2013-01-11 06:09:00,12.7,10.4,29.92,North,0,0.0,0.0,90,0.00,CLR,,0.00,WeatherDisplay:10.37,2013-01-11 15:09:00,
2013-01-11 06:15:00,12.7,10.1,29.92,North,0,0.0,0.0,89,0.00,CLR,,0.00,WeatherDisplay:10.37,2013-01-11 15:15:00,
2013-01-11 06:24:00,12.7,10.1,29.92,North,0,0.0,0.0,89,0.00,CLR,,0.00,WeatherDisplay:10.37,2013-01-11 15:24:00,
2013-01-11 06:30:00,12.7,10.4,29.92,North,0,0.0,0.0,90,0.00,CLR,,0.00,WeatherDisplay:10.37,2013-01-11 15:30:00,
2013-01-11 06:39:00,12.7,10.4,29.93,North,0,0.0,0.0,90,0.00,CLR,,0.00,WeatherDisplay:10.37,2013-01-11 15:39:00,
2013-01-11 06:45:00,12.9,10.5,29.93,North,0,0.0,0.0,90,0.00,CLR,,0.00,WeatherDisplay:10.37,2013-01-11 15:45:00,
2013-01-11 06:54:00,12.9,10.5,29.93,North,0,0.0,0.0,90,0.00,CLR,,0.00,WeatherDisplay:10.37,2013-01-11 15:54:00,
2013-01-11 07:00:00,12.7,10.4,29.93,North,0,0.0,0.0,90,0.00,CLR,,0.00,WeatherDisplay:10.37,2013-01-11 16:00:00,
2013-01-11 07:09:00,12.6,10.2,29.93,North,0,0.0,0.0,90,0.00,CLR,,0.00,WeatherDisplay:10.37,2013-01-11 16:09:00,
2013-01-11 07:15:00,12.6,10.2,29.94,North,0,0.0,0.0,90,0.00,CLR,,0.00,WeatherDisplay:10.37,2013-01-11 16:15:00,
2013-01-11 07:24:00,12.4,9.8,29.94,North,0,0.0,0.0,89,0.00,CLR,,0.00,WeatherDisplay:10.37,2013-01-11 16:24:00,
2013-01-11 07:29:00,12.2,10.3,29.94,North,0,0.0,0.0,92,0.00,CLR,,0.00,WeatherDisplay:10.37,2013-01-11 16:29:00,
2013-01-11 07:34:00,12.0,9.7,29.94,North,0,0.0,0.0,90,0.00,CLR,,0.00,WeatherDisplay:10.37,2013-01-11 16:34:00,
2013-01-11 07:39:00,12.0,9.4,29.95,North,0,0.0,0.0,89,0.00,CLR,,0.00,WeatherDisplay:10.37,2013-01-11 16:39:00,
2013-01-11 07:45:00,12.0,9.4,29.95,North,0,0.0,0.0,89,0.00,CLR,,0.00,WeatherDisplay:10.37,2013-01-11 16:45:00,
2013-01-11 07:54:00,12.4,10.0,29.95,North,0,0.0,0.0,90,0.00,CLR,,0.00,WeatherDisplay:10.37,2013-01-11 16:54:00,
2013-01-11 07:59:00,12.4,9.0,29.95,North,0,0.0,0.0,86,0.00,CLR,,0.00,WeatherDisplay:10.37,2013-01-11 16:59:00,
2013-01-11 08:09:00,12.6,11.4,29.95,North,0,0.0,0.0,95,0.00,CLR,,0.00,WeatherDisplay:10.37,2013-01-11 17:09:00,
2013-01-11 08:14:00,12.7,9.6,29.95,North,0,0.0,0.0,87,0.00,CLR,,0.00,WeatherDisplay:10.37,2013-01-11 17:14:00,
2013-01-11 08:19:00,12.7,10.6,29.95,North,0,0.0,0.0,91,0.00,CLR,,0.00,WeatherDisplay:10.37,2013-01-11 17:19:00,
2013-01-11 08:24:00,12.9,10.5,29.95,North,0,0.0,0.0,90,0.00,CLR,,0.00,WeatherDisplay:10.37,2013-01-11 17:24:00,
2013-01-11 08:30:00,12.9,10.0,29.96,North,0,0.0,0.0,88,0.00,CLR,,0.00,WeatherDisplay:10.37,2013-01-11 17:30:00,
2013-01-11 08:39:00,12.9,10.3,29.96,North,0,0.0,0.0,89,0.00,CLR,,0.00,WeatherDisplay:10.37,2013-01-11 17:39:00,
2013-01-11 08:45:00,12.9,10.5,29.96,North,0,0.0,0.0,90,0.00,CLR,,0.00,WeatherDisplay:10.37,2013-01-11 17:45:00,
2013-01-11 08:49:00,12.9,10.5,29.97,North,0,0.0,0.0,90,0.00,CLR,,0.00,WeatherDisplay:10.37,2013-01-11 17:49:00,
2013-01-11 08:59:00,12.6,10.2,29.98,North,0,0.0,0.0,90,0.00,CLR,,0.00,WeatherDisplay:10.37,2013-01-11 17:59:00,
2013-01-11 09:04:00,12.4,10.0,29.98,North,0,0.0,0.0,90,0.00,CLR,,0.00,WeatherDisplay:10.37,2013-01-11 18:04:00,
2013-01-11 09:09:00,12.2,9.6,29.98,North,0,0.0,0.0,89,0.00,CLR,,0.00,WeatherDisplay:10.37,2013-01-11 18:09:00,
2013-01-11 09:15:00,12.0,9.4,29.98,North,0,0.0,0.0,89,0.00,CLR,,0.00,WeatherDisplay:10.37,2013-01-11 18:15:00,
2013-01-11 09:19:00,12.0,9.4,29.98,North,0,1.0,0.0,89,0.00,CLR,,0.00,WeatherDisplay:10.37,2013-01-11 18:19:00,
2013-01-11 09:30:00,12.1,9.8,29.98,North,0,0.0,0.0,90,0.00,CLR,,0.00,WeatherDisplay:10.37,2013-01-11 18:30:00,
2013-01-11 09:39:00,12.4,10.5,29.98,North,0,0.0,0.0,92,0.00,CLR,,0.00,WeatherDisplay:10.37,2013-01-11 18:39:00,
2013-01-11 09:44:00,12.4,10.3,29.99,North,0,0.0,0.0,91,0.00,CLR,,0.00,WeatherDisplay:10.37,2013-01-11 18:44:00,
2013-01-11 09:49:00,12.6,10.2,29.99,North,0,0.0,0.0,90,0.00,CLR,,0.00,WeatherDisplay:10.37,2013-01-11 18:49:00,
2013-01-11 09:54:00,12.6,10.4,29.99,North,0,0.0,0.0,91,0.00,CLR,,0.00,WeatherDisplay:10.37,2013-01-11 18:54:00,
2013-01-11 10:00:00,12.6,10.4,29.99,North,0,1.0,0.0,91,0.00,CLR,,0.00,WeatherDisplay:10.37,2013-01-11 19:00:00,
2013-01-11 10:09:00,12.6,10.2,29.99,North,0,0.0,0.0,90,0.00,CLR,,0.00,WeatherDisplay:10.37,2013-01-11 19:09:00,
2013-01-11 10:14:00,12.4,9.8,29.99,North,0,0.0,0.0,89,0.00,CLR,,0.00,WeatherDisplay:10.37,2013-01-11 19:14:00,
2013-01-11 10:19:00,12.0,9.1,30.00,North,0,0.0,0.0,88,0.00,CLR,,0.00,WeatherDisplay:10.37,2013-01-11 19:19:00,
2013-01-11 10:24:00,11.9,9.0,30.00,North,0,0.0,0.0,88,0.00,CLR,,0.00,WeatherDisplay:10.37,2013-01-11 19:24:00,
2013-01-11 10:30:00,11.7,9.0,30.00,North,0,0.0,0.0,89,0.00,CLR,,0.00,WeatherDisplay:10.37,2013-01-11 19:30:00,
2013-01-11 10:39:00,11.5,8.6,30.00,North,0,0.0,0.0,88,0.00,CLR,,0.00,WeatherDisplay:10.37,2013-01-11 19:39:00,
2013-01-11 10:45:00,11.5,8.6,30.01,North,0,0.0,0.0,88,0.00,CLR,,0.00,WeatherDisplay:10.37,2013-01-11 19:45:00,
2013-01-11 10:54:00,11.2,7.8,30.01,North,0,0.0,0.0,86,0.00,CLR,,0.00,WeatherDisplay:10.37,2013-01-11 19:54:00,
2013-01-11 10:59:00,11.1,8.5,30.00,North,0,0.0,0.0,89,0.00,CLR,,0.00,WeatherDisplay:10.37,2013-01-11 19:59:00,
2013-01-11 11:04:00,11.0,8.2,30.00,North,0,0.0,0.0,88,0.00,CLR,,0.00,WeatherDisplay:10.37,2013-01-11 20:04:00,
2013-01-11 11:09:00,10.9,7.8,30.00,North,0,0.0,0.0,87,0.00,CLR,,0.00,WeatherDisplay:10.37,2013-01-11 20:09:00,
2013-01-11 11:15:00,10.9,9.6,30.00,North,0,0.0,0.0,94,0.00,CLR,,0.00,WeatherDisplay:10.37,2013-01-11 20:15:00,
2013-01-11 11:24:00,10.9,8.1,30.01,North,0,0.0,0.0,88,0.00,CLR,,0.00,WeatherDisplay:10.37,2013-01-11 20:24:00,
2013-01-11 11:30:00,10.9,8.1,30.02,North,0,0.0,0.0,88,0.00,CLR,,0.00,WeatherDisplay:10.37,2013-01-11 20:30:00,
2013-01-11 11:39:00,10.9,8.3,30.02,North,0,0.0,0.0,89,0.00,CLR,,0.00,WeatherDisplay:10.37,2013-01-11 20:39:00,
2013-01-11 11:45:00,10.9,7.8,30.02,North,0,0.0,0.0,87,0.00,CLR,,0.00,WeatherDisplay:10.37,2013-01-11 20:45:00,
2013-01-11 11:54:00,11.1,8.3,30.02,North,0,0.0,0.0,88,0.00,CLR,,0.00,WeatherDisplay:10.37,2013-01-11 20:54:00,
2013-01-11 12:00:00,11.1,8.5,30.02,North,0,0.0,0.0,89,0.00,CLR,,0.00,WeatherDisplay:10.37,2013-01-11 21:00:00,
2013-01-11 12:09:00,11.5,9.1,30.02,North,0,0.0,0.0,90,0.00,CLR,,0.00,WeatherDisplay:10.37,2013-01-11 21:09:00,
2013-01-11 12:15:00,11.5,8.9,30.02,North,0,0.0,0.0,89,0.00,CLR,,0.00,WeatherDisplay:10.37,2013-01-11 21:15:00,
2013-01-11 12:24:00,11.7,9.0,30.03,North,0,0.0,0.0,89,0.00,CLR,,0.00,WeatherDisplay:10.37,2013-01-11 21:24:00,
2013-01-11 12:30:00,11.7,9.0,30.04,North,0,0.0,0.0,89,0.00,CLR,,0.00,WeatherDisplay:10.37,2013-01-11 21:30:00,
2013-01-11 12:39:00,11.7,9.3,30.04,North,0,0.0,0.0,90,0.00,CLR,,0.00,WeatherDisplay:10.37,2013-01-11 21:39:00,
2013-01-11 12:44:00,11.7,9.3,30.05,North,0,0.0,0.0,90,0.00,CLR,,0.00,WeatherDisplay:10.37,2013-01-11 21:44:00,
2013-01-11 12:49:00,11.7,9.0,30.05,North,0,0.0,0.0,89,0.00,CLR,,0.00,WeatherDisplay:10.37,2013-01-11 21:49:00,
2013-01-11 12:54:00,11.7,9.0,30.05,North,0,0.0,0.0,89,0.00,CLR,,0.00,WeatherDisplay:10.37,2013-01-11 21:54:00,
2013-01-11 13:00:00,11.7,9.0,30.05,North,0,0.0,0.0,89,0.00,CLR,,0.00,WeatherDisplay:10.37,2013-01-11 22:00:00,
2013-01-11 13:09:00,11.7,9.0,30.06,North,0,0.0,0.0,89,0.00,CLR,,0.00,WeatherDisplay:10.37,2013-01-11 22:09:00,
2013-01-11 13:14:00,11.7,9.0,30.06,North,0,0.0,0.0,89,0.00,CLR,,0.00,WeatherDisplay:10.37,2013-01-11 22:14:00,
2013-01-11 13:19:00,11.7,9.0,30.06,North,0,0.0,0.0,89,0.00,CLR,,0.00,WeatherDisplay:10.37,2013-01-11 22:19:00,
2013-01-11 13:24:00,11.7,8.3,30.06,North,0,0.0,0.0,86,0.00,CLR,,0.00,WeatherDisplay:10.37,2013-01-11 22:24:00,
2013-01-11 13:30:00,11.7,9.8,30.06,North,0,0.0,0.0,92,0.00,CLR,,0.00,WeatherDisplay:10.37,2013-01-11 22:30:00,
2013-01-11 13:39:00,11.7,9.3,30.06,North,0,0.0,0.0,90,0.00,CLR,,0.00,WeatherDisplay:10.37,2013-01-11 22:39:00,
2013-01-11 13:45:00,11.7,9.3,30.06,North,0,0.0,0.0,90,0.00,CLR,,0.00,WeatherDisplay:10.37,2013-01-11 22:45:00,
2013-01-11 13:54:00,11.8,9.4,30.06,North,0,0.0,0.0,90,0.00,CLR,,0.00,WeatherDisplay:10.37,2013-01-11 22:54:00,
2013-01-11 14:00:00,11.8,9.4,30.07,North,0,0.0,0.0,90,0.00,CLR,,0.00,WeatherDisplay:10.37,2013-01-11 23:00:00,
2013-01-11 14:09:00,12.0,9.9,30.08,North,0,0.0,0.0,91,0.00,CLR,,0.00,WeatherDisplay:10.37,2013-01-11 23:09:00,
2013-01-11 14:15:00,12.0,9.7,30.08,North,0,0.0,0.0,90,0.00,CLR,,0.00,WeatherDisplay:10.37,2013-01-11 23:15:00,
2013-01-11 14:24:00,12.2,9.8,30.08,North,0,0.0,0.0,90,0.00,CLR,,0.00,WeatherDisplay:10.37,2013-01-11 23:24:00,
2013-01-11 14:30:00,12.3,10.2,30.08,North,0,0.0,0.0,91,0.00,CLR,,0.00,WeatherDisplay:10.37,2013-01-11 23:30:00,
2013-01-11 14:39:00,12.4,10.0,30.08,North,0,0.0,0.0,90,0.00,CLR,,0.00,WeatherDisplay:10.37,2013-01-11 23:39:00,
2013-01-11 14:45:00,12.5,9.6,30.09,North,0,0.0,0.0,88,0.00,CLR,,0.00,WeatherDisplay:10.37,2013-01-11 23:45:00,
2013-01-11 14:54:00,12.6,10.7,30.10,North,0,0.0,0.0,92,0.00,CLR,,0.00,WeatherDisplay:10.37,2013-01-11 23:54:00,
2013-01-11 14:59:00,12.7,10.6,30.09,North,0,0.0,0.0,91,0.00,CLR,,0.00,WeatherDisplay:10.37,2013-01-11 23:59:00,
2013-01-11 15:04:00,12.9,10.3,30.10,North,0,0.0,0.0,89,0.00,CLR,,0.00,WeatherDisplay:10.37,2013-01-12 00:04:00,
2013-01-11 15:09:00,12.9,10.8,30.09,North,0,0.0,0.0,91,0.00,CLR,,0.00,WeatherDisplay:10.37,2013-01-12 00:09:00,
2013-01-11 15:15:00,13.1,11.0,30.10,North,0,0.0,0.0,91,0.00,CLR,,0.00,WeatherDisplay:10.37,2013-01-12 00:15:00,
2013-01-11 15:24:00,13.3,11.4,30.10,North,0,0.0,0.0,92,0.00,CLR,,0.00,WeatherDisplay:10.37,2013-01-12 00:24:00,
2013-01-11 15:30:00,13.3,11.6,30.11,North,0,0.0,0.0,93,0.00,CLR,,0.00,WeatherDisplay:10.37,2013-01-12 00:30:00,
2013-01-11 15:39:00,13.3,11.1,30.11,North,0,0.0,0.0,91,0.00,CLR,,0.00,WeatherDisplay:10.37,2013-01-12 00:39:00,
2013-01-11 15:45:00,13.3,11.6,30.11,North,0,0.0,0.0,93,0.00,CLR,,0.00,WeatherDisplay:10.37,2013-01-12 00:45:00,
2013-01-11 15:54:00,13.3,11.1,30.11,North,0,0.0,0.0,91,0.00,CLR,,0.00,WeatherDisplay:10.37,2013-01-12 00:54:00,
2013-01-11 16:00:00,13.3,11.1,30.11,North,0,0.0,0.0,91,0.00,CLR,,0.00,WeatherDisplay:10.37,2013-01-12 01:00:00,
2013-01-11 16:09:00,13.3,10.9,30.12,North,0,0.0,0.0,90,0.00,CLR,,0.00,WeatherDisplay:10.37,2013-01-12 01:09:00,
2013-01-11 16:15:00,13.2,10.8,30.12,North,0,0.0,0.0,90,0.00,CLR,,0.00,WeatherDisplay:10.37,2013-01-12 01:15:00,
2013-01-11 16:24:00,13.3,11.4,30.13,North,0,0.0,0.0,92,0.00,CLR,,0.00,WeatherDisplay:10.37,2013-01-12 01:24:00,
2013-01-11 16:30:00,13.3,10.1,30.13,North,0,0.0,0.0,87,0.00,CLR,,0.00,WeatherDisplay:10.37,2013-01-12 01:30:00,
2013-01-11 16:39:00,13.5,10.8,30.13,North,0,0.0,0.0,89,0.00,CLR,,0.00,WeatherDisplay:10.37,2013-01-12 01:39:00,
2013-01-11 16:45:00,13.5,11.3,30.13,North,0,0.0,0.0,91,0.00,CLR,,0.00,WeatherDisplay:10.37,2013-01-12 01:45:00,
2013-01-11 16:54:00,13.5,11.8,30.14,North,0,0.0,0.0,93,0.00,CLR,,0.00,WeatherDisplay:10.37,2013-01-12 01:54:00,
2013-01-11 16:59:00,13.5,10.8,30.14,North,0,0.0,0.0,89,0.00,CLR,,0.00,WeatherDisplay:10.37,2013-01-12 01:59:00,
2013-01-11 17:04:00,13.5,11.6,30.14,North,0,0.0,0.0,92,0.00,CLR,,0.00,WeatherDisplay:10.37,2013-01-12 02:04:00,
2013-01-11 17:09:00,13.5,11.6,30.14,North,0,0.0,0.0,92,0.00,CLR,,0.00,WeatherDisplay:10.37,2013-01-12 02:09:00,
2013-01-11 17:15:00,13.5,11.3,30.14,North,0,0.0,0.0,91,0.00,CLR,,0.00,WeatherDisplay:10.37,2013-01-12 02:15:00,
2013-01-11 17:19:00,13.5,11.3,30.14,North,0,0.0,0.0,91,0.00,CLR,,0.00,WeatherDisplay:10.37,2013-01-12 02:19:00,
2013-01-11 17:24:00,13.5,11.1,30.15,North,0,0.0,0.0,90,0.00,CLR,,0.00,WeatherDisplay:10.37,2013-01-12 02:24:00,
2013-01-11 17:30:00,13.5,11.1,30.15,North,0,0.0,0.0,90,0.00,CLR,,0.00,WeatherDisplay:10.37,2013-01-12 02:30:00,
2013-01-11 17:39:00,13.3,11.0,30.15,North,0,0.0,0.0,90,0.00,CLR,,0.00,WeatherDisplay:10.37,2013-01-12 02:39:00,
2013-01-11 17:44:00,13.3,10.9,30.15,North,0,0.0,0.0,90,0.00,CLR,,0.00,WeatherDisplay:10.37,2013-01-12 02:44:00,
2013-01-11 17:50:00,13.4,10.5,30.15,North,0,0.0,0.0,88,0.00,CLR,,0.00,WeatherDisplay:10.37,2013-01-12 02:50:00,
2013-01-11 17:55:00,13.4,11.0,30.15,North,0,0.0,0.0,90,0.00,CLR,,0.00,WeatherDisplay:10.37,2013-01-12 02:55:00,
2013-01-11 18:04:00,13.5,11.1,30.16,North,0,0.0,0.0,90,0.00,CLR,,0.00,WeatherDisplay:10.37,2013-01-12 03:04:00,
2013-01-11 18:09:00,13.5,10.6,30.16,North,0,0.0,0.0,88,0.00,CLR,,0.00,WeatherDisplay:10.37,2013-01-12 03:09:00,
2013-01-11 18:15:00,13.5,10.8,30.16,North,0,0.0,0.0,89,0.00,CLR,,0.00,WeatherDisplay:10.37,2013-01-12 03:15:00,
2013-01-11 18:19:00,13.5,11.1,30.17,North,0,0.0,0.0,90,0.00,CLR,,0.00,WeatherDisplay:10.37,2013-01-12 03:19:00,
2013-01-11 18:24:00,13.5,11.1,30.17,North,0,0.0,0.0,90,0.00,CLR,,0.00,WeatherDisplay:10.37,2013-01-12 03:24:00,
2013-01-11 18:30:00,13.6,11.0,30.17,North,0,0.0,0.0,89,0.00,CLR,,0.00,WeatherDisplay:10.37,2013-01-12 03:30:00,
2013-01-11 18:40:00,13.6,11.0,30.18,North,0,0.0,0.0,89,0.00,CLR,,0.00,WeatherDisplay:10.37,2013-01-12 03:40:00,
2013-01-11 18:45:00,13.7,11.8,30.18,North,0,0.0,0.0,92,0.00,CLR,,0.00,WeatherDisplay:10.37,2013-01-12 03:45:00,
2013-01-11 18:54:00,13.8,10.9,30.18,North,0,0.0,0.0,88,0.00,CLR,,0.00,WeatherDisplay:10.37,2013-01-12 03:54:00,
2013-01-11 19:00:00,13.8,11.4,30.18,North,0,0.0,0.0,90,0.00,CLR,,0.00,WeatherDisplay:10.37,2013-01-12 04:00:00,
2013-01-11 19:09:00,13.6,11.3,30.18,North,0,0.0,0.0,90,0.00,CLR,,0.00,WeatherDisplay:10.37,2013-01-12 04:09:00,
2013-01-11 19:15:00,13.6,10.7,30.18,North,0,0.0,0.0,88,0.00,CLR,,0.00,WeatherDisplay:10.37,2013-01-12 04:15:00,
2013-01-11 19:19:00,13.6,11.5,30.18,North,0,0.0,0.0,91,0.00,CLR,,0.00,WeatherDisplay:10.37,2013-01-12 04:19:00,
2013-01-11 19:24:00,13.6,11.2,30.18,North,0,0.0,0.0,90,0.00,CLR,,0.00,WeatherDisplay:10.37,2013-01-12 04:24:00,
2013-01-11 19:30:00,13.5,10.8,30.19,North,0,0.0,0.0,89,0.00,CLR,,0.00,WeatherDisplay:10.37,2013-01-12 04:30:00,
2013-01-11 19:39:00,13.5,11.1,30.19,North,0,0.0,0.0,90,0.00,CLR,,0.00,WeatherDisplay:10.37,2013-01-12 04:39:00,
2013-01-11 19:45:00,13.5,10.3,30.19,North,0,0.0,0.0,87,0.00,CLR,,0.00,WeatherDisplay:10.37,2013-01-12 04:45:00,
2013-01-11 19:54:00,13.5,11.1,30.19,North,0,0.0,0.0,90,0.00,CLR,,0.00,WeatherDisplay:10.37,2013-01-12 04:54:00,
2013-01-11 20:00:00,13.5,12.1,30.19,North,0,0.0,0.0,94,0.00,CLR,,0.00,WeatherDisplay:10.37,2013-01-12 05:00:00,
2013-01-11 20:04:00,13.6,11.2,30.19,North,0,0.0,0.0,90,0.00,CLR,,0.00,WeatherDisplay:10.37,2013-01-12 05:04:00,
2013-01-11 20:09:00,13.6,11.0,30.20,North,0,0.0,0.0,89,0.00,CLR,,0.00,WeatherDisplay:10.37,2013-01-12 05:09:00,
2013-01-11 20:15:00,13.5,11.1,30.20,North,0,0.0,0.0,90,0.00,CLR,,0.00,WeatherDisplay:10.37,2013-01-12 05:15:00,
2013-01-11 20:19:00,13.5,11.2,30.21,North,0,0.0,0.0,90,0.00,CLR,,0.00,WeatherDisplay:10.37,2013-01-12 05:19:00,
2013-01-11 20:24:00,13.5,10.6,30.21,North,0,0.0,0.0,88,0.00,CLR,,0.00,WeatherDisplay:10.37,2013-01-12 05:24:00,
2013-01-11 20:30:00,13.5,11.1,30.21,North,0,0.0,0.0,90,0.00,CLR,,0.00,WeatherDisplay:10.37,2013-01-12 05:30:00,
2013-01-11 20:39:00,13.3,10.9,30.21,North,0,0.0,0.0,90,0.00,CLR,,0.00,WeatherDisplay:10.37,2013-01-12 05:39:00,
2013-01-11 20:45:00,13.3,11.1,30.22,North,0,0.0,0.0,91,0.00,CLR,,0.00,WeatherDisplay:10.37,2013-01-12 05:45:00,
2013-01-11 20:54:00,13.1,10.7,30.22,North,0,0.0,0.0,90,0.00,CLR,,0.00,WeatherDisplay:10.37,2013-01-12 05:54:00,
2013-01-11 20:59:00,13.1,11.0,30.22,North,0,0.0,0.0,91,0.00,CLR,,0.00,WeatherDisplay:10.37,2013-01-12 05:59:00,
2013-01-11 21:04:00,13.0,10.1,30.22,North,0,0.0,0.0,88,0.00,CLR,,0.00,WeatherDisplay:10.37,2013-01-12 06:04:00,
2013-01-11 21:09:00,12.9,9.8,30.22,North,0,0.0,0.0,87,0.00,CLR,,0.00,WeatherDisplay:10.37,2013-01-12 06:09:00,
2013-01-11 21:15:00,12.9,10.8,30.22,North,0,0.0,0.0,91,0.00,CLR,,0.00,WeatherDisplay:10.37,2013-01-12 06:15:00,
2013-01-11 21:24:00,12.9,11.5,30.22,North,0,0.0,0.0,94,0.00,CLR,,0.00,WeatherDisplay:10.37,2013-01-12 06:24:00,
2013-01-11 21:30:00,12.9,10.5,30.22,North,0,0.0,0.0,90,0.00,CLR,,0.00,WeatherDisplay:10.37,2013-01-12 06:30:00,
2013-01-11 21:39:00,12.9,10.5,30.23,North,0,0.0,0.0,90,0.00,CLR,,0.00,WeatherDisplay:10.37,2013-01-12 06:39:00,
2013-01-11 21:45:00,12.9,10.8,30.23,North,0,0.0,0.0,91,0.00,CLR,,0.00,WeatherDisplay:10.37,2013-01-12 06:45:00,
2013-01-11 21:54:00,12.9,9.8,30.22,North,0,0.0,0.0,87,0.00,CLR,,0.00,WeatherDisplay:10.37,2013-01-12 06:54:00,
2013-01-11 22:00:00,12.9,10.5,30.23,North,0,0.0,0.0,90,0.00,CLR,,0.00,WeatherDisplay:10.37,2013-01-12 07:00:00,
2013-01-11 22:09:00,12.7,10.4,30.23,North,0,0.0,0.0,90,0.00,CLR,,0.00,WeatherDisplay:10.37,2013-01-12 07:09:00,
2013-01-11 22:14:00,12.6,10.4,30.23,North,0,0.0,0.0,91,0.00,CLR,,0.00,WeatherDisplay:10.37,2013-01-12 07:14:00,
2013-01-11 22:19:00,12.4,10.0,30.23,North,0,0.0,0.0,90,0.00,CLR,,0.00,WeatherDisplay:10.37,2013-01-12 07:19:00,
2013-01-11 22:24:00,12.3,9.9,30.23,North,0,0.0,0.0,90,0.00,CLR,,0.00,WeatherDisplay:10.37,2013-01-12 07:24:00,
2013-01-11 22:30:00,12.1,9.8,30.23,North,0,0.0,0.0,90,0.00,CLR,,0.00,WeatherDisplay:10.37,2013-01-12 07:30:00,
2013-01-11 22:39:00,12.2,9.8,30.24,North,0,0.0,0.0,90,0.00,CLR,,0.00,WeatherDisplay:10.37,2013-01-12 07:39:00,
2013-01-11 22:44:00,12.2,9.6,30.23,North,0,0.0,0.0,89,0.00,CLR,,0.00,WeatherDisplay:10.37,2013-01-12 07:44:00,
2013-01-11 22:49:00,12.2,10.1,30.23,North,0,0.0,0.0,91,0.00,CLR,,0.00,WeatherDisplay:10.37,2013-01-12 07:49:00,
2013-01-11 22:54:00,12.4,10.3,30.23,North,0,0.0,0.0,91,0.00,CLR,,0.00,WeatherDisplay:10.37,2013-01-12 07:54:00,
2013-01-11 23:00:00,12.4,10.0,30.23,North,0,0.0,0.0,90,0.00,CLR,,0.00,WeatherDisplay:10.37,2013-01-12 08:00:00,
2013-01-11 23:09:00,12.4,10.5,30.23,North,0,0.0,0.0,92,0.00,CLR,,0.00,WeatherDisplay:10.37,2013-01-12 08:09:00,
2013-01-11 23:15:00,12.6,10.4,30.23,North,0,0.0,0.0,91,0.00,CLR,,0.00,WeatherDisplay:10.37,2013-01-12 08:15:00,
2013-01-11 23:24:00,12.6,9.7,30.24,North,0,0.0,0.0,88,0.00,CLR,,0.00,WeatherDisplay:10.37,2013-01-12 08:24:00,
2013-01-11 23:30:00,12.6,10.7,30.23,North,0,0.0,0.0,92,0.00,CLR,,0.00,WeatherDisplay:10.37,2013-01-12 08:30:00,
2013-01-11 23:39:00,12.6,11.2,30.23,North,0,0.0,0.0,94,0.00,CLR,,0.00,WeatherDisplay:10.37,2013-01-12 08:39:00,
2013-01-11 23:45:00,12.6,10.4,30.23,North,0,0.0,0.0,91,0.00,CLR,,0.00,WeatherDisplay:10.37,2013-01-12 08:45:00,
2013-01-11 23:54:00,12.6,10.4,30.23,North,0,0.0,0.0,91,0.00,CLR,,0.00,WeatherDisplay:10.37,2013-01-12 08:54:00,